Latest Coastal Weather Observations for Portland Harbour

IDS60701

Issued at 9:01 am CDT Friday 31 March 2017 (issued every 10 minutes, with the page automatically refreshed every 10 minutes)

About coastal observations | Map of coastal stations | Coastal observations for SA | Marine services | Other Formats
Station Details ID: 090192 Name: PORTLAND NTC AWS Lat: -38.34 Lon: 141.61 Height: 0.0 m
Data from the previous 72 hours. | See also: Recent months for locations in South Australia
Date/Time
CDT
Temp
°C
Wind Pressure Rain since
9am
mm
Weather Cloud Vis
km
Sea
Height
m
Swell
Dir  Spd
kts
Gust
kts
hPa Trend Height
m
Period
s
Dir
31/09:00am 13.4 NW 4 6 1023.1 - - - - - - - - -
31/08:30am 13.2 NW 5 7 1023.1 - - - - - - - - -
31/08:00am 13.1 NW 4 6 1023.0 - - - - - - - - -
31/07:30am 12.9 WNW 3 5 1022.7 - - - - - - - - -
31/07:00am 12.9 W 5 7 1022.3 - - - - - - - - -
31/06:30am 13.1 WNW 4 6 1022.1 - - - - - - - - -
31/06:00am 13.3 WNW 5 7 1021.6 - - - - - - - - -
31/05:30am 13.4 W 3 5 1021.3 - - - - - - - - -
31/05:00am 13.9 SW 4 6 1021.2 - - - - - - - - -
31/04:30am 14.0 WSW 6 8 1021.1 - - - - - - - - -
31/04:00am 13.5 SW 4 5 1021.1 - - - - - - - - -
31/03:30am 13.8 SW 6 8 1021.4 - - - - - - - - -
31/03:00am 13.7 SSW 4 6 1021.4 - - - - - - - - -
31/02:30am 13.9 SSW 5 8 1021.6 - - - - - - - - -
31/02:00am 13.8 SSW 4 6 1021.9 - - - - - - - - -
31/01:30am 13.3 SW 3 4 1022.0 - - - - - - - - -
31/01:00am 13.8 S 4 6 1022.2 - - - - - - - - -
31/12:30am 13.9 S 4 6 1022.6 - - - - - - - - -
31/12:00am 13.8 S 4 6 1022.7 - - - - - - - - -
 
Date/Time
CDT
Temp
°C
Wind Pressure Rain since
9am
mm
Weather Cloud Vis
km
Sea
Height
m
Swell
Dir  Spd
kts
Gust
kts
hPa Trend Height
m
Period
s
Dir
30/11:30pm 13.9 S 5 8 1022.8 - - - - - - - - -
30/11:00pm 13.2 SW 3 4 1023.0 - - - - - - - - -
30/10:30pm 13.2 SSW 5 7 1023.4 - - - - - - - - -
30/10:00pm 13.4 SSW 6 8 1023.5 - - - - - - - - -
30/09:30pm 13.7 SSW 8 11 1023.7 - - - - - - - - -
30/09:00pm 13.5 SSW 7 10 1023.6 - - - - - - - - -
30/08:30pm 13.7 SSW 8 10 1023.5 - - - - - - - - -
30/08:00pm 13.9 SSW 11 15 1023.3 - - - - - - - - -
30/07:30pm 14.2 SSW 10 14 1023.0 - - - - - - - - -
30/07:00pm 14.0 SSW 9 13 1022.8 - - - - - - - - -
30/06:30pm 14.2 SSW 11 15 1022.4 - - - - - - - - -
30/06:00pm 14.4 SSW 8 14 1022.0 - - - - - - - - -
30/05:30pm 14.3 SSW 12 16 1021.7 - - - - - - - - -
30/05:00pm 14.5 SSW 15 26 1021.5 - - - - - - - - -
30/04:30pm 14.8 SSW 17 21 1021.3 - - - - - - - - -
30/04:00pm 14.8 SSW 15 21 1021.2 - - - - - - - - -
30/03:45pm 14.7 S 16 27 1021.0 - - - - - - - - -
30/03:30pm 14.7 SSW 17 25 1020.8 - - - - - - - - -
30/03:00pm 14.7 SSW 15 21 1020.6 - - - - - - - - -
30/02:30pm 14.7 S 17 22 1020.3 - - - - - - - - -
30/02:00pm 14.7 SSW 17 22 1020.3 - - - - - - - - -
30/01:30pm 14.9 SSW 17 24 1020.3 - - - - - - - - -
30/01:05pm 15.1 SSW 16 27 1020.3 - - - - - - - - -
30/01:00pm 15.3 SSW 14 20 1020.3 - - - - - - - - -
30/12:30pm 15.2 SSW 15 21 1020.1 - - - - - - - - -
30/12:00pm 15.0 SSW 16 24 1020.2 - - - - - - - - -
30/11:30am 15.0 SSW 17 23 1020.0 - - - - - - - - -
30/11:00am 15.3 SSW 16 26 1019.8 - - - - - - - - -
30/10:30am 14.8 SSW 17 22 1019.6 - - - - - - - - -
30/10:00am 14.9 SSW 17 23 1019.3 - - - - - - - - -
30/09:30am 14.1 SSW 11 17 1019.0 - - - - - - - - -
30/09:00am 14.5 SSW 12 18 1018.5 - - - - - - - - -
30/08:42am 14.0 SSW 15 24 1018.4 - - - - - - - - -
30/08:30am 14.1 SW 9 13 1018.2 - - - - - - - - -
30/08:00am 13.7 SW 11 16 1017.5 - - - - - - - - -
30/07:30am 13.3 SW 10 14 1017.0 - - - - - - - - -
30/07:00am 13.1 SW 9 15 1016.5 - - - - - - - - -
30/06:30am 13.7 SW 10 14 1016.0 - - - - - - - - -
30/06:00am 13.6 SSW 11 17 1015.5 - - - - - - - - -
30/05:30am 13.6 SW 13 19 1015.1 - - - - - - - - -
30/05:00am 13.5 SW 10 16 1014.5 - - - - - - - - -
30/04:30am 13.2 SW 11 16 1014.2 - - - - - - - - -
30/04:00am 13.8 SW 10 15 1013.8 - - - - - - - - -
30/03:30am 13.9 SW 11 16 1013.6 - - - - - - - - -
30/03:00am 13.7 SW 13 18 1013.5 - - - - - - - - -
30/02:30am 13.3 SW 10 14 1013.5 - - - - - - - - -
30/02:00am 13.7 SW 13 20 1013.4 - - - - - - - - -
30/01:30am 13.6 WSW 10 18 1013.2 - - - - - - - - -
30/01:00am 12.8 SW 11 17 1013.1 - - - - - - - - -
30/12:45am 12.8 WSW 10 22 1013.4 - - - - - - - - -
30/12:30am 12.2 W 7 11 1013.1 - - - - - - - - -
30/12:00am 12.1 W 9 16 1013.1 - - - - - - - - -
 
Date/Time
CDT
Temp
°C
Wind Pressure Rain since
9am
mm
Weather Cloud Vis
km
Sea
Height
m
Swell
Dir  Spd
kts
Gust
kts
hPa Trend Height
m
Period
s
Dir
29/11:30pm 12.4 SW 5 8 1012.8 - - - - - - - - -
29/11:00pm 12.7 W 6 8 1012.5 - - - - - - - - -
29/10:30pm 13.1 WSW 16 25 1012.5 - - - - - - - - -
29/10:14pm 13.4 WSW 15 27 1012.3 - - - - - - - - -
29/10:00pm 13.8 SW 12 15 1012.1 - - - - - - - - -
29/09:30pm 12.6 W 5 9 1011.7 - - - - - - - - -
29/09:00pm 12.8 NNW 5 7 1011.3 - - - - - - - - -
29/08:30pm 12.7 NW 4 6 1010.9 - - - - - - - - -
29/08:00pm 12.5 W 5 8 1010.7 - - - - - - - - -
29/07:30pm 13.4 NNW 6 10 1009.7 - - - - - - - - -
29/07:00pm 13.3 NW 4 6 1009.5 - - - - - - - - -
29/06:30pm 13.5 WNW 3 5 1009.4 - - - - - - - - -
29/06:00pm 13.1 W 5 8 1009.1 - - - - - - - - -
29/05:30pm 12.6 W 4 6 1008.5 - - - - - - - - -
29/05:00pm 12.4 WSW 7 11 1008.7 - - - - - - - - -
29/04:30pm 11.9 SW 13 19 1008.3 - - - - - - - - -
29/04:01pm 12.6 WSW 15 25 1007.9 - - - - - - - - -
29/04:00pm 12.6 WSW 16 25 1007.9 - - - - - - - - -
29/03:31pm 11.8 SW 22 33 1007.8 - - - - - - - - -
29/03:30pm 11.9 SW 23 33 1007.9 - - - - - - - - -
29/03:19pm 12.8 SW 19 34 1007.5 - - - - - - - - -
29/03:00pm 12.8 SW 19 27 1007.3 - - - - - - - - -
29/02:33pm 12.9 SW 20 30 1006.8 - - - - - - - - -
29/02:30pm 12.8 SW 21 30 1006.8 - - - - - - - - -
29/02:00pm 13.7 SW 20 29 1006.0 - - - - - - - - -
29/01:53pm 14.4 SW 21 31 1005.8 - - - - - - - - -
29/01:41pm 15.9 WSW 21 29 1005.4 - - - - - - - - -
29/01:37pm 17.8 W 21 31 1005.1 - - - - - - - - -
29/01:30pm 19.4 WNW 22 31 1004.5 - - - - - - - - -
29/01:20pm 20.5 WNW 16 30 1004.3 - - - - - - - - -
29/01:00pm 20.2 NW 18 26 1004.4 - - - - - - - - -
29/12:30pm 20.4 NW 16 28 1004.5 - - - - - - - - -
29/12:01pm 20.0 NW 17 28 1004.8 - - - - - - - - -
29/12:00pm 19.8 NW 18 28 1004.8 - - - - - - - - -
29/11:30am 19.4 NW 16 26 1005.1 - - - - - - - - -
29/11:23am 19.6 NNW 15 26 1005.3 - - - - - - - - -
29/11:00am 18.6 NW 15 21 1005.5 - - - - - - - - -
29/10:34am 18.2 NW 15 25 1005.8 - - - - - - - - -
29/10:30am 18.1 NW 16 25 1005.8 - - - - - - - - -
29/10:00am 17.6 NNW 12 19 1006.2 - - - - - - - - -
29/09:30am 16.6 NNW 11 16 1006.5 - - - - - - - - -
29/09:00am 16.5 NNW 12 19 1006.8 - - - - - - - - -
29/08:30am 16.1 NNW 12 16 1006.8 - - - - - - - - -
29/08:00am 15.9 NNW 12 17 1006.7 - - - - - - - - -
29/07:30am 15.9 NNW 11 16 1006.8 - - - - - - - - -
29/07:00am 15.8 NW 13 19 1006.9 - - - - - - - - -
29/06:30am 16.4 NNW 11 17 1006.7 - - - - - - - - -
29/06:00am 15.9 NNW 9 12 1006.7 - - - - - - - - -
29/05:30am 15.6 NNW 11 14 1006.5 - - - - - - - - -
29/05:00am 15.3 NNW 10 14 1006.9 - - - - - - - - -
29/04:30am 15.1 NNW 9 12 1007.1 - - - - - - - - -
29/04:00am 15.3 NNW 9 11 1007.4 - - - - - - - - -
29/03:30am 15.5 NNW 8 11 1007.8 - - - - - - - - -
29/03:00am 15.7 NNW 7 9 1008.1 - - - - - - - - -
29/02:30am 15.7 N 6 8 1008.3 - - - - - - - - -
29/02:00am 16.4 NNW 8 12 1008.6 - - - - - - - - -
29/01:30am 16.8 NNW 9 11 1008.9 - - - - - - - - -
29/01:00am 17.4 NW 9 15 1009.1 - - - - - - - - -
29/12:30am 17.7 NW 11 14 1009.7 - - - - - - - - -
29/12:00am 17.6 NW 10 15 1009.9 - - - - - - - - -
 
Date/Time
CDT
Temp
°C
Wind Pressure Rain since
9am
mm
Weather Cloud Vis
km
Sea
Height
m
Swell
Dir  Spd
kts
Gust
kts
hPa Trend Height
m
Period
s
Dir
28/11:30pm 17.4 NNW 9 14 1010.3 - - - - - - - - -
28/11:00pm 17.3 NNW 9 13 1010.7 - - - - - - - - -
28/10:30pm 17.2 NNW 8 12 1010.8 - - - - - - - - -
28/10:00pm 16.9 NNW 8 12 1010.9 - - - - - - - - -
28/09:30pm 16.7 WNW 6 8 1011.0 - - - - - - - - -
28/09:00pm 16.2 NW 4 7 1011.0 - - - - - - - - -
28/08:30pm 16.6 WNW 6 8 1010.9 - - - - - - - - -
28/08:00pm 17.1 NW 7 10 1010.8 - - - - - - - - -
28/07:30pm 17.3 WNW 8 11 1010.9 - - - - - - - - -
28/07:00pm 17.7 W 10 14 1010.9 - - - - - - - - -
28/06:30pm 18.1 W 11 17 1011.0 - - - - - - - - -
28/06:00pm 18.2 W 13 19 1010.7 - - - - - - - - -
28/05:30pm 18.7 W 13 21 1010.6 - - - - - - - - -
28/05:00pm 19.5 W 16 24 1010.6 - - - - - - - - -
28/04:30pm 19.5 W 16 23 1010.7 - - - - - - - - -
28/04:00pm 19.4 W 15 22 1010.9 - - - - - - - - -
28/03:30pm 18.9 W 18 25 1011.0 - - - - - - - - -
28/03:00pm 19.9 W 15 24 1011.1 - - - - - - - - -
28/02:30pm 19.6 W 18 24 1011.3 - - - - - - - - -
28/02:00pm 19.4 W 18 26 1011.6 - - - - - - - - -
28/01:46pm 19.3 WNW 18 28 1011.9 - - - - - - - - -
28/01:30pm 18.8 W 18 25 1011.9 - - - - - - - - -
28/01:00pm 19.0 WNW 18 26 1012.1 - - - - - - - - -
28/12:30pm 18.9 W 18 28 1012.6 - - - - - - - - -
28/12:26pm 19.2 WNW 17 28 1012.6 - - - - - - - - -
28/12:00pm 18.3 WNW 16 23 1012.8 - - - - - - - - -
28/11:30am 18.0 WNW 13 21 1013.1 - - - - - - - - -
28/11:00am 17.6 WNW 14 19 1013.1 - - - - - - - - -
28/10:30am 17.6 W 13 20 1013.4 - - - - - - - - -
28/10:00am 16.8 NW 11 15 1013.4 - - - - - - - - -
28/09:30am 15.8 NNW 9 12 1013.5 - - - - - - - - -
28/09:00am 14.7 NNW 8 10 1013.4 - - - - - - - - -

Other Formats:

Comma delimited format used in spreadsheet applications
http://www.bom.gov.au/fwo/IDS60701/IDS60701.95826.axf

JavaScript Object Notation format (JSON) in row-major order
http://www.bom.gov.au/fwo/IDS60701/IDS60701.95826.json